createdAt,value
2022-11-14T00:00:08.265Z,99.45
2022-11-14T00:01:08.265Z,99.45
2022-11-14T00:02:08.238Z,99.66
2022-11-14T00:03:08.416Z,99.66
2022-11-14T00:04:08.255Z,99.76
2022-11-14T00:05:08.212Z,99.55
2022-11-14T00:06:08.197Z,99.50
2022-11-14T00:07:08.217Z,99.50
2022-11-14T00:08:08.189Z,99.45
2022-11-14T00:09:08.176Z,99.40
2022-11-14T00:10:08.144Z,99.50
2022-11-14T00:11:08.128Z,99.40
2022-11-14T00:12:08.137Z,99.71
2022-11-14T00:13:08.111Z,99.81
2022-11-14T00:14:08.104Z,99.50
2022-11-14T00:15:08.117Z,99.50
2022-11-14T00:16:08.085Z,99.50
2022-11-14T00:17:08.097Z,99.50
2022-11-14T00:18:08.132Z,99.71
2022-11-14T00:19:08.203Z,99.60
2022-11-14T00:20:08.071Z,99.60
2022-11-14T00:21:08.024Z,99.71
2022-11-14T00:22:08.046Z,99.75
2022-11-14T00:23:08.006Z,99.75
2022-11-14T00:24:07.990Z,99.54
2022-11-14T00:25:08.021Z,99.33
2022-11-14T00:26:07.965Z,99.50
2022-11-14T00:27:07.952Z,99.50
2022-11-14T00:28:07.939Z,99.40
2022-11-14T00:29:07.925Z,99.40
2022-11-14T00:30:07.936Z,99.29
2022-11-14T00:31:07.935Z,99.40
2022-11-14T00:32:07.921Z,99.40
2022-11-14T00:33:07.881Z,99.44
2022-11-14T00:34:07.910Z,99.65
2022-11-14T00:35:08.001Z,99.65
2022-11-14T00:36:07.851Z,99.75
2022-11-14T00:37:07.847Z,99.81
2022-11-14T00:38:07.856Z,99.99
2022-11-14T00:39:07.815Z,99.99
2022-11-14T00:40:07.821Z,99.99
2022-11-14T00:41:07.793Z,99.99
2022-11-14T00:42:07.795Z,99.99
2022-11-14T00:43:07.774Z,99.99
2022-11-14T00:44:07.764Z,99.99
2022-11-14T00:45:07.771Z,99.96
2022-11-14T00:46:07.750Z,99.99
2022-11-14T00:47:07.724Z,99.99
2022-11-14T00:48:07.720Z,99.91
2022-11-14T00:49:07.736Z,99.81
2022-11-14T00:50:07.748Z,99.81
2022-11-14T00:51:07.810Z,99.71
2022-11-14T00:52:07.676Z,99.85
2022-11-14T00:53:07.693Z,99.85
2022-11-14T00:54:07.668Z,99.96
2022-11-14T00:55:07.639Z,99.75
2022-11-14T00:56:07.682Z,99.75
2022-11-14T00:57:07.618Z,99.99
2022-11-14T00:58:07.612Z,99.96
2022-11-14T00:59:07.615Z,99.99
2022-11-14T01:00:07.590Z,99.99
2022-11-14T01:01:07.679Z,99.99
2022-11-14T01:02:07.567Z,99.99
2022-11-14T01:03:07.569Z,99.99
2022-11-14T01:04:07.542Z,99.99
2022-11-14T01:05:07.539Z,99.99
2022-11-14T01:06:07.546Z,99.99
2022-11-14T01:07:07.619Z,99.99
2022-11-14T01:08:07.526Z,99.95
2022-11-14T01:09:07.533Z,99.99
2022-11-14T01:10:07.473Z,99.99
2022-11-14T01:11:07.515Z,99.84
2022-11-14T01:12:07.455Z,99.84
2022-11-14T01:13:07.462Z,99.99
2022-11-14T01:14:07.437Z,99.95
2022-11-14T01:15:07.434Z,99.84
2022-11-14T01:16:07.437Z,99.99
2022-11-14T01:17:07.402Z,99.99
2022-11-14T01:18:07.407Z,99.99
2022-11-14T01:19:07.394Z,99.99
2022-11-14T01:20:07.368Z,99.99
2022-11-14T01:21:07.379Z,99.99
2022-11-14T01:22:07.368Z,99.99
2022-11-14T01:23:07.439Z,99.99
2022-11-14T01:24:07.364Z,99.99
2022-11-14T01:25:07.312Z,99.99
2022-11-14T01:26:07.342Z,99.99
2022-11-14T01:27:07.291Z,99.99
2022-11-14T01:28:07.283Z,99.99
2022-11-14T01:29:07.287Z,99.99
2022-11-14T01:30:07.252Z,99.99
2022-11-14T01:31:07.242Z,99.99
2022-11-14T01:32:07.265Z,99.99
2022-11-14T01:33:07.224Z,99.99
2022-11-14T01:34:07.209Z,99.99
2022-11-14T01:35:07.211Z,99.99
2022-11-14T01:36:07.191Z,99.99
2022-11-14T01:37:07.198Z,99.99
2022-11-14T01:38:07.179Z,99.99
2022-11-14T01:39:07.268Z,99.99
2022-11-14T01:40:07.150Z,99.99
2022-11-14T01:41:07.134Z,99.99
2022-11-14T01:42:07.143Z,99.99
2022-11-14T01:43:07.139Z,99.99
2022-11-14T01:44:07.094Z,99.99
2022-11-14T01:45:07.090Z,99.99
2022-11-14T01:46:07.085Z,99.99
2022-11-14T01:47:07.090Z,99.99
2022-11-14T01:48:07.056Z,99.99
2022-11-14T01:49:07.051Z,99.99
2022-11-14T01:50:07.059Z,99.99
2022-11-14T01:51:07.042Z,99.99
2022-11-14T01:52:07.023Z,99.99
2022-11-14T01:53:07.032Z,99.99
2022-11-14T01:54:06.991Z,99.99
2022-11-14T01:55:07.131Z,99.99
2022-11-14T01:56:06.972Z,99.99
2022-11-14T01:57:06.953Z,99.99
2022-11-14T01:58:06.940Z,99.99
2022-11-14T01:59:06.969Z,99.99
2022-11-14T02:00:06.927Z,99.99
2022-11-14T02:01:07.005Z,99.99
2022-11-14T02:02:06.906Z,99.99
2022-11-14T02:03:07.001Z,99.99
2022-11-14T02:04:08.806Z,99.99
2022-11-14T02:05:06.885Z,99.99
2022-11-14T02:06:06.863Z,99.99
2022-11-14T02:07:06.923Z,99.99
2022-11-14T02:08:06.832Z,99.99
2022-11-14T02:09:06.829Z,99.99
2022-11-14T02:10:06.814Z,99.99
2022-11-14T02:11:06.821Z,99.99
2022-11-14T02:12:06.791Z,99.99
2022-11-14T02:13:06.854Z,99.99
2022-11-14T02:14:06.782Z,99.99
2022-11-14T02:15:06.778Z,99.99
2022-11-14T02:16:06.751Z,99.99
2022-11-14T02:17:28.615Z,99.99
2022-11-14T02:18:07.718Z,99.99
2022-11-14T02:19:06.723Z,99.99
2022-11-14T02:20:06.708Z,99.99
2022-11-14T02:21:06.783Z,99.99
2022-11-14T02:22:06.680Z,99.99
2022-11-14T02:23:06.697Z,99.99
2022-11-14T02:24:06.720Z,99.99
2022-11-14T02:25:06.697Z,99.99
2022-11-14T02:26:06.648Z,99.99
2022-11-14T02:27:06.739Z,99.99
2022-11-14T02:28:06.620Z,99.99
2022-11-14T02:29:06.606Z,99.99
2022-11-14T02:30:06.646Z,99.99
2022-11-14T02:31:06.580Z,99.99
2022-11-14T02:32:10.446Z,99.99
2022-11-14T02:33:11.326Z,99.99
2022-11-14T02:34:06.547Z,99.99
2022-11-14T02:35:06.540Z,99.99
2022-11-14T02:36:06.546Z,99.99
2022-11-14T02:37:06.521Z,99.99
2022-11-14T02:38:06.528Z,99.99
2022-11-14T02:39:06.498Z,99.99
2022-11-14T02:40:06.481Z,99.99
2022-11-14T02:41:06.465Z,99.99
2022-11-14T02:42:06.538Z,99.99
2022-11-14T02:43:06.590Z,99.99
2022-11-14T02:44:06.440Z,99.99
2022-11-14T02:45:06.466Z,99.99
2022-11-14T02:46:06.443Z,99.99
2022-11-14T02:47:06.415Z,99.99
2022-11-14T02:48:06.423Z,99.99
2022-11-14T02:49:06.381Z,99.99
2022-11-14T02:50:06.399Z,99.99
2022-11-14T02:51:06.372Z,99.99
2022-11-14T02:52:06.515Z,99.99
2022-11-14T02:53:06.365Z,99.99
2022-11-14T02:54:06.328Z,99.99
2022-11-14T02:55:06.317Z,99.99
2022-11-14T02:56:06.324Z,99.99
2022-11-14T02:57:06.296Z,99.99
2022-11-14T02:58:06.313Z,99.99
2022-11-14T02:59:15.069Z,99.99
2022-11-14T03:00:10.117Z,99.99
2022-11-14T03:01:20.199Z,99.99
2022-11-14T03:02:07.581Z,99.99
2022-11-14T03:03:06.232Z,99.99
2022-11-14T03:04:39.038Z,99.99
2022-11-14T03:06:19.540Z,99.99
2022-11-14T03:07:19.523Z,99.99
2022-11-14T03:09:31.887Z,99.99
2022-11-14T03:10:32.223Z,99.99
2022-11-14T03:12:43.949Z,99.99
2022-11-14T03:13:43.931Z,99.99
2022-11-14T03:14:44.052Z,99.99
2022-11-14T03:15:43.909Z,99.99
2022-11-14T03:21:40.401Z,99.99
2022-11-14T03:22:39.909Z,99.99
2022-11-14T03:23:39.928Z,99.99
2022-11-14T03:25:49.500Z,99.99
2022-11-14T03:26:49.489Z,99.99
2022-11-14T03:27:49.510Z,99.99
2022-11-14T03:28:49.473Z,99.99
2022-11-14T03:29:49.573Z,99.99
2022-11-14T03:30:49.537Z,99.99
2022-11-14T03:31:49.450Z,99.99
2022-11-14T03:32:49.431Z,99.99
2022-11-14T03:33:49.442Z,99.99
2022-11-14T03:34:49.461Z,99.99
2022-11-14T03:35:49.389Z,99.99
2022-11-14T03:36:49.412Z,99.99
2022-11-14T03:37:51.742Z,99.99
2022-11-14T03:38:49.370Z,99.99
2022-11-14T03:39:49.366Z,99.99
2022-11-14T03:40:49.376Z,99.99
2022-11-14T03:41:49.344Z,99.99
2022-11-14T03:42:49.327Z,99.99
2022-11-14T03:43:49.301Z,99.99
2022-11-14T03:44:49.298Z,99.99
2022-11-14T03:45:49.436Z,99.99
2022-11-14T03:46:49.295Z,99.99
2022-11-14T03:47:49.262Z,99.99
2022-11-14T03:48:49.245Z,99.99
2022-11-14T03:49:49.234Z,99.99
2022-11-14T03:50:49.236Z,99.99
2022-11-14T03:51:49.305Z,99.99
2022-11-14T03:52:49.218Z,99.99
2022-11-14T03:53:49.223Z,99.99
2022-11-14T03:54:49.227Z,99.99
2022-11-14T03:55:49.187Z,99.99
2022-11-14T03:56:49.177Z,99.99
2022-11-14T03:57:49.183Z,99.99
2022-11-14T03:58:49.159Z,99.99
2022-11-14T03:59:49.157Z,99.99
2022-11-14T04:00:49.211Z,99.99
2022-11-14T04:01:49.251Z,99.99
2022-11-14T04:02:49.109Z,99.99
2022-11-14T04:03:49.083Z,99.99
2022-11-14T04:04:49.137Z,99.99
2022-11-14T04:05:49.078Z,99.99
2022-11-14T04:06:49.073Z,99.99
2022-11-14T04:07:49.061Z,99.99
2022-11-14T04:08:49.023Z,99.99
2022-11-14T04:09:49.039Z,99.99
2022-11-14T04:10:49.063Z,99.99
2022-11-14T04:11:48.998Z,99.99
2022-11-14T04:12:49.049Z,99.99
2022-11-14T04:13:48.969Z,99.99
2022-11-14T04:14:48.994Z,99.99
2022-11-14T04:15:48.952Z,99.99
2022-11-14T04:16:48.986Z,99.99
2022-11-14T04:17:49.096Z,99.99
2022-11-14T04:18:48.909Z,99.99
2022-11-14T04:19:48.923Z,99.99
2022-11-14T04:20:48.887Z,99.99
2022-11-14T04:21:48.883Z,99.99
2022-11-14T04:22:48.868Z,99.99
2022-11-14T04:23:48.946Z,99.99
2022-11-14T04:24:48.844Z,99.99
2022-11-14T04:25:48.874Z,99.99
2022-11-14T04:26:48.843Z,99.99
2022-11-14T04:27:48.833Z,99.99
2022-11-14T04:28:49.006Z,99.99
2022-11-14T04:29:48.829Z,99.99
2022-11-14T04:30:48.816Z,99.99
2022-11-14T04:31:48.877Z,99.99
2022-11-14T04:32:48.768Z,99.99
2022-11-14T04:33:48.886Z,99.99
2022-11-14T04:34:48.742Z,99.99
2022-11-14T04:35:48.727Z,99.99
2022-11-14T04:36:48.740Z,99.99
2022-11-14T04:37:48.725Z,99.99
2022-11-14T04:38:48.715Z,99.99
2022-11-14T04:39:48.687Z,99.99
2022-11-14T04:40:48.699Z,99.99
2022-11-14T04:41:48.656Z,99.99
2022-11-14T04:42:48.685Z,99.99
2022-11-14T04:43:50.972Z,99.99
2022-11-14T04:44:48.708Z,99.99
2022-11-14T04:45:48.614Z,99.99
2022-11-14T04:46:48.617Z,99.99
2022-11-14T04:47:48.593Z,99.99
2022-11-14T04:48:48.608Z,99.99
2022-11-14T04:49:48.707Z,99.99
2022-11-14T04:50:48.564Z,99.99
2022-11-14T04:51:48.564Z,99.99
2022-11-14T04:52:48.584Z,99.99
2022-11-14T04:53:48.522Z,99.99
2022-11-14T04:54:48.538Z,99.99
2022-11-14T04:55:48.522Z,99.99
2022-11-14T04:56:48.529Z,99.99
2022-11-14T04:57:48.519Z,99.99
2022-11-14T04:58:48.467Z,99.99
2022-11-14T04:59:48.497Z,99.99
2022-11-14T05:00:48.473Z,99.99
2022-11-14T05:01:48.522Z,99.99
2022-11-14T05:02:48.453Z,99.99
2022-11-14T05:03:48.421Z,99.99
2022-11-14T05:04:48.468Z,99.99
2022-11-14T05:05:48.407Z,99.99
2022-11-14T05:06:48.421Z,99.99
2022-11-14T05:07:48.371Z,99.99
2022-11-14T05:08:48.354Z,99.99
2022-11-14T05:09:48.364Z,99.99
2022-11-14T05:10:48.425Z,99.99
2022-11-14T05:11:48.330Z,99.99
2022-11-14T05:12:48.316Z,99.99
2022-11-14T05:13:48.308Z,99.99
2022-11-14T05:14:48.315Z,99.99
2022-11-14T05:15:48.283Z,99.99
2022-11-14T05:16:48.302Z,99.99
2022-11-14T05:17:48.349Z,99.99
2022-11-14T05:18:48.261Z,99.99
2022-11-14T05:19:48.257Z,99.99
2022-11-14T05:20:48.313Z,99.99
2022-11-14T05:21:48.259Z,99.99
2022-11-14T05:22:48.212Z,99.99
2022-11-14T05:23:48.264Z,99.99
2022-11-14T05:24:48.230Z,99.99
2022-11-14T05:25:48.201Z,99.99
2022-11-14T05:26:48.170Z,99.99
2022-11-14T05:27:48.270Z,99.99
2022-11-14T05:28:48.153Z,99.99
2022-11-14T05:29:48.138Z,99.99
2022-11-14T05:30:48.239Z,99.99
2022-11-14T05:31:48.132Z,99.99
2022-11-14T05:32:48.107Z,99.99
2022-11-14T05:33:48.196Z,99.99
2022-11-14T05:34:48.075Z,99.99
2022-11-14T05:35:48.087Z,99.99
2022-11-14T05:36:48.061Z,99.99
2022-11-14T05:37:48.088Z,99.99
2022-11-14T05:38:48.068Z,99.99
2022-11-14T05:39:48.035Z,99.99
2022-11-14T05:40:48.105Z,99.99
2022-11-14T05:41:48.022Z,99.99
2022-11-14T05:42:48.011Z,99.99
2022-11-14T05:43:47.978Z,99.99
2022-11-14T05:44:48.022Z,99.99
2022-11-14T05:45:47.993Z,99.99
2022-11-14T05:46:47.974Z,99.99
2022-11-14T05:47:47.994Z,99.99
2022-11-14T05:48:47.943Z,99.99
2022-11-14T05:49:47.979Z,99.99
2022-11-14T05:50:47.901Z,99.99
2022-11-14T05:51:47.911Z,99.99
2022-11-14T05:52:47.879Z,99.99
2022-11-14T05:53:47.889Z,99.99
2022-11-14T05:54:47.868Z,99.99
2022-11-14T05:55:47.882Z,99.99
2022-11-14T05:56:47.872Z,99.99
2022-11-14T05:57:47.837Z,99.99
2022-11-14T05:58:47.808Z,99.99
2022-11-14T05:59:47.822Z,99.99
2022-11-14T06:00:52.198Z,99.99
2022-11-14T06:01:48.907Z,99.99
2022-11-14T06:02:47.790Z,99.99
2022-11-14T06:03:47.784Z,99.99
2022-11-14T06:04:47.776Z,99.99
2022-11-14T06:05:47.739Z,99.99
2022-11-14T06:06:47.784Z,99.99
2022-11-14T06:07:47.775Z,99.99
2022-11-14T06:08:47.703Z,99.99
2022-11-14T06:09:47.694Z,99.99
2022-11-14T06:10:47.690Z,99.99
2022-11-14T06:11:47.693Z,99.99
2022-11-14T06:12:47.724Z,99.99
2022-11-14T06:13:47.690Z,99.99
2022-11-14T06:14:47.668Z,99.99
2022-11-14T06:15:48.454Z,99.99
2022-11-14T06:16:47.625Z,99.99
2022-11-14T06:17:47.638Z,99.99
2022-11-14T06:18:47.621Z,99.99
2022-11-14T06:19:47.580Z,99.99
2022-11-14T06:20:47.575Z,99.99
2022-11-14T06:21:47.643Z,99.99
2022-11-14T06:22:47.568Z,99.99
2022-11-14T06:23:47.541Z,99.99
2022-11-14T06:24:47.528Z,99.99
2022-11-14T06:25:47.576Z,99.99
2022-11-14T06:26:47.543Z,99.99
2022-11-14T06:27:47.607Z,99.99
2022-11-14T06:28:47.510Z,99.99
2022-11-14T06:29:47.511Z,99.99
2022-11-14T06:30:47.464Z,99.99
2022-11-14T06:31:47.463Z,99.99
2022-11-14T06:32:47.509Z,99.99
2022-11-14T06:33:47.480Z,99.99
2022-11-14T06:34:47.420Z,99.99
2022-11-14T06:35:47.404Z,99.99
2022-11-14T06:36:47.468Z,99.99
2022-11-14T06:37:47.406Z,99.99
2022-11-14T06:38:47.382Z,99.99
2022-11-14T06:39:47.383Z,99.99
2022-11-14T06:40:47.363Z,99.99
2022-11-14T06:41:47.383Z,99.99
2022-11-14T06:42:47.321Z,99.99
2022-11-14T06:43:47.339Z,99.99
2022-11-14T06:44:47.309Z,99.99
2022-11-14T06:45:47.332Z,99.99
2022-11-14T06:46:47.285Z,99.99
2022-11-14T06:47:47.288Z,99.99
2022-11-14T06:48:47.258Z,99.99
2022-11-14T06:49:47.479Z,99.99
2022-11-14T06:50:47.256Z,99.99
2022-11-14T06:51:47.258Z,99.99
2022-11-14T06:52:47.225Z,99.99
2022-11-14T06:53:47.293Z,99.99
2022-11-14T06:54:47.223Z,99.99
2022-11-14T06:55:47.214Z,99.99
2022-11-14T06:56:47.180Z,99.99
2022-11-14T06:57:47.185Z,99.99
2022-11-14T06:58:47.165Z,99.99
2022-11-14T06:59:47.152Z,99.99
2022-11-14T07:00:47.114Z,99.99
2022-11-14T07:01:47.112Z,99.99
2022-11-14T07:02:47.178Z,99.99
2022-11-14T07:03:47.081Z,99.99
2022-11-14T07:04:47.099Z,99.99
2022-11-14T07:05:47.058Z,99.99
2022-11-14T07:06:47.110Z,99.99
2022-11-14T07:07:47.073Z,99.99
2022-11-14T07:08:47.038Z,99.99
2022-11-14T07:09:47.052Z,99.99
2022-11-14T07:10:47.004Z,99.99
2022-11-14T07:11:47.003Z,99.99
2022-11-14T07:12:46.989Z,99.99
2022-11-14T07:13:47.016Z,99.99
2022-11-14T07:14:46.976Z,99.99
2022-11-14T07:15:46.987Z,99.99
2022-11-14T07:16:46.948Z,99.99
2022-11-14T07:17:46.930Z,99.99
2022-11-14T07:18:46.926Z,99.99
2022-11-14T07:19:46.914Z,99.99
2022-11-14T07:20:46.942Z,99.99
2022-11-14T07:21:46.908Z,99.99
2022-11-14T07:22:46.881Z,99.99
2022-11-14T07:23:46.872Z,99.99
2022-11-14T07:24:46.850Z,99.99
2022-11-14T07:25:46.861Z,99.99
2022-11-14T07:26:46.888Z,99.99
2022-11-14T07:27:46.919Z,99.99
2022-11-14T07:28:50.844Z,99.99
2022-11-14T07:29:46.817Z,99.99
2022-11-14T07:30:46.846Z,99.99
2022-11-14T07:31:46.784Z,99.99
2022-11-14T07:32:46.776Z,99.99
2022-11-14T07:33:46.752Z,99.99
2022-11-14T07:34:46.741Z,99.99
2022-11-14T07:35:46.816Z,99.99
2022-11-14T07:36:46.726Z,99.99
2022-11-14T07:37:46.720Z,99.99
2022-11-14T07:38:46.701Z,99.99
2022-11-14T07:39:46.715Z,99.99
2022-11-14T07:40:46.678Z,99.99
2022-11-14T07:41:46.672Z,99.99
2022-11-14T07:42:46.664Z,99.99
2022-11-14T07:43:46.673Z,99.99
2022-11-14T07:44:46.673Z,99.99
2022-11-14T07:45:46.640Z,99.99
2022-11-14T07:46:46.787Z,99.99
2022-11-14T07:47:46.627Z,99.99
2022-11-14T07:48:46.650Z,99.99
2022-11-14T07:49:46.601Z,99.99
2022-11-14T07:50:46.645Z,99.99
2022-11-14T07:51:46.568Z,99.99
2022-11-14T07:52:46.555Z,99.99
2022-11-14T07:53:46.624Z,99.99
2022-11-14T07:54:46.627Z,99.99
2022-11-14T07:55:46.561Z,99.99
2022-11-14T07:56:46.561Z,99.99
2022-11-14T07:57:49.171Z,99.99
2022-11-14T07:58:46.491Z,99.99
2022-11-14T07:59:46.518Z,99.99
2022-11-14T08:00:46.548Z,99.99
2022-11-14T08:01:46.466Z,99.99
2022-11-14T08:02:46.495Z,99.99
2022-11-14T08:03:46.560Z,99.99
2022-11-14T08:04:46.406Z,99.99
2022-11-14T08:05:46.471Z,99.99
2022-11-14T08:06:46.521Z,99.99
2022-11-14T08:07:46.395Z,99.99
2022-11-14T08:08:46.377Z,99.99
2022-11-14T08:09:46.356Z,99.99
2022-11-14T08:10:46.430Z,99.99
2022-11-14T08:11:46.354Z,99.99
2022-11-14T08:12:46.326Z,99.99
2022-11-14T08:13:46.335Z,99.99
2022-11-14T08:14:46.314Z,99.99
2022-11-14T08:15:46.299Z,99.99
2022-11-14T08:16:46.372Z,99.99
2022-11-14T08:17:46.280Z,99.99
2022-11-14T08:18:46.266Z,99.99
2022-11-14T08:19:46.256Z,99.99
2022-11-14T08:20:46.248Z,99.99
2022-11-14T08:21:46.305Z,99.99
2022-11-14T08:22:46.230Z,99.99
2022-11-14T08:23:46.271Z,99.99
2022-11-14T08:24:46.266Z,99.99
2022-11-14T08:25:46.208Z,99.99
2022-11-14T08:26:46.175Z,99.99
2022-11-14T08:27:46.153Z,99.99
2022-11-14T08:28:46.195Z,99.99
2022-11-14T08:29:46.136Z,99.99
2022-11-14T08:30:46.158Z,99.99
2022-11-14T08:31:46.151Z,99.99
2022-11-14T08:32:46.152Z,99.99
2022-11-14T08:33:46.099Z,99.99
2022-11-14T08:34:46.098Z,99.99
2022-11-14T08:35:46.099Z,99.99
2022-11-14T08:36:46.141Z,99.99
2022-11-14T08:37:46.119Z,99.99
2022-11-14T08:38:46.031Z,99.99
2022-11-14T08:39:46.120Z,99.99
2022-11-14T08:40:46.019Z,99.99
2022-11-14T08:41:46.050Z,99.99
2022-11-14T08:42:45.991Z,99.99
2022-11-14T08:43:46.146Z,99.99
2022-11-14T08:44:51.736Z,99.99
2022-11-14T08:45:47.020Z,99.99
2022-11-14T08:46:45.997Z,99.99
2022-11-14T08:47:45.967Z,99.99
2022-11-14T08:48:45.924Z,99.99
2022-11-14T08:49:45.947Z,99.99
2022-11-14T08:50:45.920Z,99.99
2022-11-14T08:51:45.883Z,99.99
2022-11-14T08:52:45.905Z,99.99
2022-11-14T08:53:45.905Z,99.66
2022-11-14T08:54:45.864Z,98.94
2022-11-14T08:55:45.875Z,99.00
2022-11-14T08:56:45.965Z,98.49
2022-11-14T08:57:49.412Z,97.86
2022-11-14T08:58:45.846Z,97.34
2022-11-14T08:59:45.835Z,96.94
2022-11-14T09:00:45.806Z,96.42
2022-11-14T09:01:45.801Z,96.37
2022-11-14T09:02:45.898Z,95.03
2022-11-14T09:03:45.970Z,95.14
2022-11-14T09:04:45.815Z,94.10
2022-11-14T09:05:45.815Z,94.42
2022-11-14T09:06:45.780Z,93.24
2022-11-14T09:07:45.712Z,93.34
2022-11-14T09:08:45.711Z,93.13
2022-11-14T09:09:45.699Z,92.57
2022-11-14T09:10:45.674Z,92.06
2022-11-14T09:11:45.796Z,91.85
2022-11-14T09:12:45.653Z,91.03
2022-11-14T09:13:45.672Z,90.92
2022-11-14T09:14:45.747Z,91.30
2022-11-14T09:15:45.649Z,90.57
2022-11-14T09:16:45.608Z,90.88
2022-11-14T09:17:45.610Z,90.22
2022-11-14T09:18:45.608Z,90.01
2022-11-14T09:19:45.599Z,90.06
2022-11-14T09:20:45.578Z,88.78
2022-11-14T09:21:45.582Z,88.99
2022-11-14T09:22:45.645Z,89.23
2022-11-14T09:23:45.572Z,89.29
2022-11-14T09:24:45.526Z,88.89
2022-11-14T09:25:45.519Z,89.36
2022-11-14T09:26:45.513Z,88.43
2022-11-14T09:27:45.620Z,88.89
2022-11-14T09:28:45.487Z,88.84
2022-11-14T09:29:45.477Z,88.80
2022-11-14T09:30:45.450Z,88.84
2022-11-14T09:31:45.454Z,88.33
2022-11-14T09:32:45.430Z,87.81
2022-11-14T09:33:45.455Z,88.23
2022-11-14T09:34:45.404Z,88.53
2022-11-14T09:35:45.515Z,88.18
2022-11-14T09:36:45.402Z,87.77
2022-11-14T09:37:45.401Z,87.57
2022-11-14T09:38:45.431Z,86.85
2022-11-14T09:39:45.383Z,86.54
2022-11-14T09:40:45.356Z,85.92
2022-11-14T09:41:45.369Z,86.64
2022-11-14T09:42:45.306Z,85.92
2022-11-14T09:43:45.337Z,85.78
2022-11-14T09:44:45.313Z,85.33
2022-11-14T09:45:45.346Z,85.47
2022-11-14T09:46:45.301Z,85.68
2022-11-14T09:47:45.287Z,85.22
2022-11-14T09:48:45.247Z,85.33
2022-11-14T09:49:45.275Z,84.88
2022-11-14T09:50:45.220Z,84.91
2022-11-14T09:51:45.210Z,84.61
2022-11-14T09:52:45.334Z,84.05
2022-11-14T09:53:45.218Z,83.68
2022-11-14T09:54:45.235Z,84.40
2022-11-14T09:55:45.202Z,84.20
2022-11-14T09:56:45.159Z,84.67
2022-11-14T09:57:45.212Z,84.26
2022-11-14T09:58:45.134Z,84.67
2022-11-14T09:59:45.184Z,83.13
2022-11-14T10:00:45.134Z,84.12
2022-11-14T10:01:45.156Z,84.63
2022-11-14T10:02:45.080Z,83.61
2022-11-14T10:03:45.082Z,83.05
2022-11-14T10:04:45.097Z,82.84
2022-11-14T10:05:45.075Z,82.64
2022-11-14T10:06:45.085Z,82.33
2022-11-14T10:07:45.025Z,82.50
2022-11-14T10:08:45.018Z,82.81
2022-11-14T10:09:45.027Z,82.40
2022-11-14T10:10:45.025Z,82.50
2022-11-14T10:11:45.044Z,81.85
2022-11-14T10:12:45.059Z,80.92
2022-11-14T10:13:44.964Z,81.29
2022-11-14T10:14:44.967Z,80.27
2022-11-14T10:15:44.934Z,80.07
2022-11-14T10:16:44.923Z,79.66
2022-11-14T10:17:44.967Z,79.41
2022-11-14T10:18:44.897Z,78.59
2022-11-14T10:19:45.058Z,79.11
2022-11-14T10:20:44.898Z,78.97
2022-11-14T10:21:45.027Z,79.17
2022-11-14T10:22:44.989Z,78.05
2022-11-14T10:23:44.881Z,78.25
2022-11-14T10:24:44.870Z,78.72
2022-11-14T10:25:44.863Z,78.01
2022-11-14T10:26:44.879Z,77.46
2022-11-14T10:27:44.839Z,77.26
2022-11-14T10:28:44.789Z,77.94
2022-11-14T10:29:44.793Z,78.04
2022-11-14T10:30:44.887Z,75.89
2022-11-14T10:31:44.764Z,76.03
2022-11-14T10:32:44.742Z,75.62
2022-11-14T10:33:44.761Z,75.93
2022-11-14T10:34:44.738Z,75.96
2022-11-14T10:35:44.708Z,75.86
2022-11-14T10:36:44.750Z,75.82
2022-11-14T10:37:44.683Z,76.43
2022-11-14T10:38:44.671Z,75.52
2022-11-14T10:39:44.730Z,75.82
2022-11-14T10:40:44.707Z,76.64
2022-11-14T10:41:57.959Z,76.23
2022-11-14T10:42:45.632Z,76.03
2022-11-14T10:43:44.620Z,76.03
2022-11-14T10:44:44.618Z,76.06
2022-11-14T10:45:44.670Z,75.24
2022-11-14T10:46:44.603Z,76.13
2022-11-14T10:47:44.585Z,76.23
2022-11-14T10:48:44.758Z,75.96
2022-11-14T10:49:44.565Z,76.03
2022-11-14T10:50:44.606Z,75.82
2022-11-14T10:51:44.604Z,76.75
2022-11-14T10:52:44.539Z,76.95
2022-11-14T10:53:44.548Z,76.03
2022-11-14T10:54:44.502Z,76.71
2022-11-14T10:56:03.252Z,75.93
2022-11-14T10:56:45.489Z,76.71
2022-11-14T10:57:44.608Z,76.09
2022-11-14T10:58:48.744Z,75.79
2022-11-14T10:59:45.448Z,76.09
2022-11-14T11:00:44.486Z,75.21
2022-11-14T11:01:44.414Z,75.93
2022-11-14T11:02:44.448Z,76.23
2022-11-14T11:03:44.497Z,76.50
2022-11-14T11:04:44.498Z,75.89
2022-11-14T11:05:44.374Z,76.20
2022-11-14T11:06:44.650Z,75.99
2022-11-14T11:07:44.369Z,75.99
2022-11-14T11:08:44.793Z,75.59
2022-11-14T11:09:46.013Z,75.99
2022-11-14T11:10:44.410Z,75.85
2022-11-14T11:11:44.316Z,74.97
2022-11-14T11:12:44.381Z,75.27
2022-11-14T11:13:44.322Z,75.99
2022-11-14T11:14:44.292Z,75.79
2022-11-14T11:15:44.285Z,75.79
2022-11-14T11:16:44.250Z,75.07
2022-11-14T11:17:44.298Z,76.13
2022-11-14T11:18:48.500Z,76.09
2022-11-14T11:19:45.367Z,76.50
2022-11-14T11:20:44.212Z,76.47
2022-11-14T11:21:44.259Z,76.37
2022-11-14T11:22:44.184Z,75.96
2022-11-14T11:23:44.254Z,75.62
2022-11-14T11:24:44.202Z,75.10
2022-11-14T11:25:44.183Z,75.14
2022-11-14T11:26:44.187Z,74.93
2022-11-14T11:27:44.135Z,75.55
2022-11-14T11:28:44.124Z,75.55
2022-11-14T11:29:44.140Z,75.14
2022-11-14T11:30:44.112Z,74.93
2022-11-14T11:31:44.158Z,75.75
2022-11-14T11:32:44.068Z,75.85
2022-11-14T11:33:44.162Z,75.71
2022-11-14T11:34:44.052Z,75.85
2022-11-14T11:35:44.060Z,75.51
2022-11-14T11:36:44.029Z,75.00
2022-11-14T11:37:44.042Z,74.52
2022-11-14T11:38:44.017Z,74.49
2022-11-14T11:39:44.084Z,75.92
2022-11-14T11:40:43.974Z,75.10
2022-11-14T11:42:11.406Z,75.82
2022-11-14T11:43:44.954Z,76.12
2022-11-14T11:44:43.957Z,75.89
2022-11-14T11:45:43.955Z,74.80
2022-11-14T11:46:43.947Z,74.80
2022-11-14T11:47:43.941Z,74.39
2022-11-14T11:48:43.894Z,74.49
2022-11-14T11:49:47.420Z,75.62
2022-11-14T11:50:44.882Z,74.59
2022-11-14T11:51:43.884Z,74.73
2022-11-14T11:52:43.992Z,74.90
2022-11-14T11:53:43.828Z,75.71
2022-11-14T11:54:43.936Z,76.12
2022-11-14T11:55:43.860Z,76.23
2022-11-14T11:56:43.788Z,74.49
2022-11-14T11:57:43.908Z,74.80
2022-11-14T11:58:43.774Z,74.18
2022-11-14T11:59:43.896Z,74.49
2022-11-14T12:00:43.796Z,74.49
2022-11-14T12:01:43.748Z,74.80
2022-11-14T12:02:49.528Z,74.46
2022-11-14T12:03:44.880Z,74.46
2022-11-14T12:04:43.747Z,75.89
2022-11-14T12:05:43.690Z,75.95
2022-11-14T12:06:43.826Z,74.25
2022-11-14T12:07:43.670Z,74.25
2022-11-14T12:08:43.662Z,74.42
2022-11-14T12:10:09.280Z,74.11
2022-11-14T12:10:44.678Z,74.46
2022-11-14T12:11:43.643Z,74.25
2022-11-14T12:12:43.712Z,74.73
2022-11-14T12:13:43.620Z,74.93
2022-11-14T12:14:43.684Z,74.42
2022-11-14T12:15:43.573Z,74.83
2022-11-14T12:16:43.580Z,73.71
2022-11-14T12:17:43.570Z,74.59
2022-11-14T12:18:43.602Z,74.22
2022-11-14T12:19:43.548Z,74.73
2022-11-14T12:20:43.583Z,74.11
2022-11-14T12:21:43.515Z,73.98
2022-11-14T12:22:43.501Z,74.18
2022-11-14T12:23:43.533Z,74.08
2022-11-14T12:24:43.486Z,74.11
2022-11-14T12:25:43.520Z,73.98
2022-11-14T12:26:43.451Z,74.49
2022-11-14T12:27:43.494Z,73.47
2022-11-14T12:28:43.465Z,74.38
2022-11-14T12:29:43.442Z,73.27
2022-11-14T12:30:43.415Z,73.19
2022-11-14T12:31:43.404Z,73.71
2022-11-14T12:32:43.459Z,73.91
2022-11-14T12:33:43.387Z,73.71
2022-11-14T12:34:43.377Z,73.60
2022-11-14T12:35:43.404Z,74.42
2022-11-14T12:36:43.400Z,74.22
2022-11-14T12:37:43.393Z,74.63
2022-11-14T12:38:43.345Z,74.29
2022-11-14T12:39:43.332Z,73.88
2022-11-14T12:40:43.310Z,74.59
2022-11-14T12:41:43.313Z,74.01
2022-11-14T12:42:43.328Z,74.18
2022-11-14T12:43:43.990Z,74.63
2022-11-14T12:44:43.355Z,74.32
2022-11-14T12:45:43.287Z,73.50
2022-11-14T12:46:43.259Z,73.77
2022-11-14T12:47:43.283Z,73.57
2022-11-14T12:48:43.230Z,74.59
2022-11-14T12:49:43.225Z,74.38
2022-11-14T12:50:43.288Z,73.88
2022-11-14T12:51:43.195Z,74.49
2022-11-14T12:52:43.204Z,74.08
2022-11-14T12:53:43.160Z,73.98
2022-11-14T12:54:43.165Z,74.11
2022-11-14T12:55:43.178Z,74.22
2022-11-14T12:56:43.113Z,74.32
2022-11-14T12:57:43.235Z,74.32
2022-11-14T12:58:43.088Z,74.83
2022-11-14T12:59:43.104Z,74.32
2022-11-14T13:00:43.082Z,74.83
2022-11-14T13:01:43.207Z,74.38
2022-11-14T13:02:43.118Z,74.73